Time;durP1;ratioP1;P1;durP2;ratioP2;P2;SDS_P1;SDS_P2;PMS_P1;PMS_P2;Temp;Humidity;BMP_temperature;BMP_pressure;BME280_temperature;BME280_humidity;BME280_pressure;Samples;Min_cycle;Max_cycle;Signal;HPM_P1;HPM_P2
2023/04/28 00:01:53;;;;;;;4.33;3.30;;;;;;;;;;6298188;28;20223;-62
2023/04/28 00:04:54;;;;;;;5.30;3.10;;;;;;;;;;6297928;28;20234;-62
2023/04/28 00:07:55;;;;;;;5.63;3.07;;;;;;;;;;6298097;28;20237;-62
2023/04/28 00:10:56;;;;;;;6.03;3.30;;;;;;;;;;6285753;28;20196;-62
2023/04/28 00:13:57;;;;;;;4.27;3.20;;;;;;;;;;6285940;28;20212;-62
2023/04/28 00:16:58;;;;;;;7.57;3.33;;;;;;;;;;6302496;28;20217;-62
2023/04/28 00:19:59;;;;;;;5.97;3.07;;;;;;;;;;6302510;28;20204;-62
2023/04/28 00:23:00;;;;;;;6.50;3.13;;;;;;;;;;6309538;28;20192;-62
2023/04/28 00:26:01;;;;;;;6.63;3.33;;;;;;;;;;6302383;28;20192;-62
2023/04/28 00:29:03;;;;;;;8.50;3.40;;;;;;;;;;6337667;28;20191;-62
2023/04/28 00:32:04;;;;;;;8.73;2.93;;;;;;;;;;6285724;28;20200;-62
2023/04/28 00:35:05;;;;;;;7.00;3.53;;;;;;;;;;6328863;28;20231;-62
2023/04/28 00:38:06;;;;;;;4.53;3.03;;;;;;;;;;6295338;28;20286;-62
2023/04/28 00:41:10;;;;;;;8.97;3.20;;;;;;;;;;6299678;28;20241;-62
2023/04/28 00:44:11;;;;;;;4.63;3.30;;;;;;;;;;6330824;28;20188;-62
2023/04/28 00:47:12;;;;;;;3.50;2.87;;;;;;;;;;6290365;28;20199;-62
2023/04/28 00:50:13;;;;;;;4.90;3.43;;;;;;;;;;6289826;28;20193;-62
2023/04/28 00:53:14;;;;;;;5.90;3.00;;;;;;;;;;6284931;28;20199;-62
2023/04/28 00:56:16;;;;;;;4.40;3.17;;;;;;;;;;6312661;28;20192;-62
2023/04/28 00:59:17;;;;;;;3.27;2.97;;;;;;;;;;6310960;28;20236;-62
2023/04/28 01:02:18;;;;;;;5.07;3.37;;;;;;;;;;6317013;28;20181;-62
2023/04/28 01:05:19;;;;;;;4.63;3.40;;;;;;;;;;6312466;28;20274;-62
2023/04/28 01:08:24;;;;;;;5.83;3.43;;;;;;;;;;6305188;28;20201;-62
2023/04/28 01:11:25;;;;;;;5.97;3.63;;;;;;;;;;6331622;28;20272;-62
2023/04/28 01:14:26;;;;;;;5.70;3.20;;;;;;;;;;6297001;28;20196;-62
2023/04/28 01:17:27;;;;;;;4.97;3.07;;;;;;;;;;6301175;28;20223;-62
2023/04/28 01:20:28;;;;;;;4.40;3.17;;;;;;;;;;6311190;28;20297;-62
2023/04/28 01:23:29;;;;;;;5.43;4.10;;;;;;;;;;6313006;28;20331;-62
2023/04/28 01:26:30;;;;;;;7.70;4.00;;;;;;;;;;6302270;28;20193;-62
2023/04/28 01:29:32;;;;;;;5.90;3.90;;;;;;;;;;6298926;28;20254;-62
2023/04/28 01:32:33;;;;;;;5.23;3.40;;;;;;;;;;6302594;28;20189;-62
2023/04/28 01:35:34;;;;;;;5.77;3.73;;;;;;;;;;6307793;28;20251;-62
2023/04/28 01:38:35;;;;;;;4.03;3.57;;;;;;;;;;6323585;28;20207;-63
2023/04/28 01:41:36;;;;;;;4.53;3.57;;;;;;;;;;6287788;28;20182;-62
2023/04/28 01:44:37;;;;;;;6.50;3.80;;;;;;;;;;6297442;28;20181;-62
2023/04/28 01:47:38;;;;;;;3.80;3.30;;;;;;;;;;6283028;28;20189;-62
2023/04/28 01:50:39;;;;;;;5.07;3.77;;;;;;;;;;6296634;28;20192;-62
2023/04/28 01:53:40;;;;;;;4.10;3.60;;;;;;;;;;6297323;28;20220;-62
2023/04/28 01:56:41;;;;;;;3.83;3.40;;;;;;;;;;6274713;28;20230;-62
2023/04/28 01:59:42;;;;;;;5.33;4.10;;;;;;;;;;6323768;28;20192;-62
2023/04/28 02:02:43;;;;;;;6.87;3.83;;;;;;;;;;6297310;28;20189;-62
2023/04/28 02:05:44;;;;;;;4.70;3.57;;;;;;;;;;6289585;28;20188;-62
2023/04/28 02:08:45;;;;;;;6.27;4.17;;;;;;;;;;6296908;28;20221;-62
2023/04/28 02:11:46;;;;;;;4.23;3.80;;;;;;;;;;6306092;28;20196;-62
2023/04/28 02:14:47;;;;;;;4.13;3.67;;;;;;;;;;6290362;28;20350;-62
2023/04/28 02:17:49;;;;;;;5.97;4.20;;;;;;;;;;6308167;28;20236;-62
2023/04/28 02:20:50;;;;;;;7.87;3.90;;;;;;;;;;6328615;27;20189;-62
2023/04/28 02:23:51;;;;;;;7.27;4.30;;;;;;;;;;6303894;28;20203;-62
2023/04/28 02:26:52;;;;;;;3.80;3.50;;;;;;;;;;6280202;28;20193;-62
2023/04/28 02:29:53;;;;;;;5.90;4.10;;;;;;;;;;6296552;28;20208;-62
2023/04/28 02:32:54;;;;;;;5.33;3.90;;;;;;;;;;6308008;28;20241;-62
2023/04/28 02:35:59;;;;;;;5.13;4.47;;;;;;;;;;6282889;28;20232;-62
2023/04/28 02:39:00;;;;;;;4.83;4.20;;;;;;;;;;6307870;28;20217;-62
2023/04/28 02:42:04;;;;;;;5.30;4.20;;;;;;;;;;6297222;28;20192;-62
2023/04/28 02:45:05;;;;;;;3.93;3.50;;;;;;;;;;6291677;28;20193;-62
2023/04/28 02:48:06;;;;;;;6.00;3.87;;;;;;;;;;6286206;28;20194;-62
2023/04/28 02:51:07;;;;;;;8.33;3.90;;;;;;;;;;6288947;28;20207;-62
2023/04/28 02:54:08;;;;;;;5.10;3.60;;;;;;;;;;6285125;28;20221;-62
2023/04/28 02:57:09;;;;;;;5.03;3.57;;;;;;;;;;6294636;28;20624;-62
2023/04/28 03:00:11;;;;;;;7.40;3.97;;;;;;;;;;6308018;28;20195;-62
2023/04/28 03:03:12;;;;;;;5.33;4.33;;;;;;;;;;6308949;28;20191;-62
2023/04/28 03:06:13;;;;;;;4.97;4.33;;;;;;;;;;6276299;28;20190;-62
2023/04/28 03:09:14;;;;;;;6.57;4.57;;;;;;;;;;6307328;28;20201;-62
2023/04/28 03:12:15;;;;;;;5.80;4.53;;;;;;;;;;6307550;28;20203;-62
2023/04/28 03:15:16;;;;;;;5.13;3.97;;;;;;;;;;6295954;28;20196;-62
2023/04/28 03:18:33;;;;;;;4.50;3.93;;;;;;;;;;6306918;28;20220;-62
2023/04/28 03:21:34;;;;;;;6.27;4.50;;;;;;;;;;6286415;28;20194;-62
2023/04/28 03:24:35;;;;;;;7.03;4.37;;;;;;;;;;6306725;28;20261;-62
2023/04/28 03:27:36;;;;;;;4.77;4.10;;;;;;;;;;6315098;28;20188;-62
2023/04/28 03:30:37;;;;;;;7.43;4.60;;;;;;;;;;6273927;28;20197;-62
2023/04/28 03:33:38;;;;;;;6.57;4.03;;;;;;;;;;6299248;28;20287;-62
2023/04/28 03:36:40;;;;;;;5.33;4.23;;;;;;;;;;6272919;28;20247;-62
2023/04/28 03:39:41;;;;;;;4.00;3.60;;;;;;;;;;6268670;28;20181;-62
2023/04/28 03:42:42;;;;;;;5.30;4.17;;;;;;;;;;6304073;28;20230;-62
2023/04/28 03:45:43;;;;;;;5.23;4.00;;;;;;;;;;6297631;28;20192;-62
2023/04/28 03:48:45;;;;;;;4.83;3.97;;;;;;;;;;6276125;28;20197;-62
2023/04/28 03:51:46;;;;;;;4.23;3.83;;;;;;;;;;6287334;28;20185;-62
2023/04/28 03:54:47;;;;;;;7.47;4.73;;;;;;;;;;6293753;28;20208;-62
2023/04/28 03:57:48;;;;;;;5.10;4.00;;;;;;;;;;6272982;28;20304;-62
2023/04/28 04:00:49;;;;;;;5.93;4.20;;;;;;;;;;6277624;28;20284;-62
2023/04/28 04:03:50;;;;;;;5.83;3.93;;;;;;;;;;6281363;28;20219;-62
2023/04/28 04:06:52;;;;;;;6.30;4.50;;;;;;;;;;6274783;28;20284;-62
2023/04/28 04:09:53;;;;;;;4.77;4.30;;;;;;;;;;6320794;28;20192;-62
2023/04/28 04:12:54;;;;;;;5.13;4.63;;;;;;;;;;6279802;28;20184;-62
2023/04/28 04:15:55;;;;;;;5.47;4.30;;;;;;;;;;6290556;28;20191;-63
2023/04/28 04:18:56;;;;;;;6.97;4.10;;;;;;;;;;6301667;28;20239;-63
2023/04/28 04:21:57;;;;;;;7.97;4.17;;;;;;;;;;6287439;28;20293;-60
2023/04/28 04:24:58;;;;;;;5.73;4.43;;;;;;;;;;6305315;28;20192;-60
2023/04/28 04:27:59;;;;;;;6.20;5.18;;;;;;;;;;6278414;28;20822;-61
2023/04/28 04:31:01;;;;;;;4.80;3.80;;;;;;;;;;6302188;28;20192;-61
2023/04/28 04:34:02;;;;;;;4.43;3.90;;;;;;;;;;6298550;28;20193;-60
2023/04/28 04:37:04;;;;;;;5.43;4.10;;;;;;;;;;6269939;28;20209;-61
2023/04/28 04:40:05;;;;;;;5.43;3.93;;;;;;;;;;6305542;28;20189;-61
2023/04/28 04:43:06;;;;;;;5.47;3.83;;;;;;;;;;6296844;28;20192;-61
2023/04/28 04:46:07;;;;;;;8.67;4.50;;;;;;;;;;6288829;28;20217;-61
2023/04/28 04:49:08;;;;;;;5.03;4.03;;;;;;;;;;6299427;28;20337;-61
2023/04/28 04:52:09;;;;;;;5.17;3.30;;;;;;;;;;6301153;28;20193;-61
2023/04/28 04:55:10;;;;;;;5.60;3.70;;;;;;;;;;6301368;28;20193;-61
2023/04/28 04:58:11;;;;;;;6.00;4.43;;;;;;;;;;6289734;28;20239;-61
2023/04/28 05:01:12;;;;;;;5.07;4.13;;;;;;;;;;6310353;28;20193;-61
2023/04/28 05:04:13;;;;;;;5.20;4.37;;;;;;;;;;6297127;28;20242;-61
2023/04/28 05:07:14;;;;;;;5.77;4.63;;;;;;;;;;6309826;28;20260;-61
2023/04/28 05:10:15;;;;;;;6.70;4.70;;;;;;;;;;6300050;28;20192;-62
2023/04/28 05:13:16;;;;;;;4.93;4.27;;;;;;;;;;6294651;28;20193;-62
2023/04/28 05:16:17;;;;;;;4.53;4.13;;;;;;;;;;6324737;28;20202;-61
2023/04/28 05:19:18;;;;;;;5.17;4.67;;;;;;;;;;6294489;28;20260;-61
2023/04/28 05:22:19;;;;;;;6.00;4.50;;;;;;;;;;6311524;28;20215;-61
2023/04/28 05:25:20;;;;;;;6.43;4.50;;;;;;;;;;6303330;28;20203;-61
2023/04/28 05:28:22;;;;;;;4.67;4.10;;;;;;;;;;6283853;28;20193;-61
2023/04/28 05:31:23;;;;;;;8.23;4.97;;;;;;;;;;6305602;28;20203;-61
2023/04/28 05:34:24;;;;;;;5.67;4.70;;;;;;;;;;6301604;28;20243;-61
2023/04/28 05:37:25;;;;;;;7.23;4.77;;;;;;;;;;6287022;28;20312;-61
2023/04/28 05:40:27;;;;;;;9.17;5.27;;;;;;;;;;6292285;28;20199;-61
2023/04/28 05:43:28;;;;;;;5.50;4.70;;;;;;;;;;6307096;28;20186;-61
2023/04/28 05:46:29;;;;;;;9.10;4.87;;;;;;;;;;6303258;28;20220;-61
2023/04/28 05:49:30;;;;;;;5.40;4.37;;;;;;;;;;6304974;28;20182;-61
2023/04/28 05:52:31;;;;;;;7.87;5.43;;;;;;;;;;6281157;28;20254;-61
2023/04/28 05:55:33;;;;;;;7.47;4.90;;;;;;;;;;6295255;28;20224;-61
2023/04/28 05:58:34;;;;;;;6.40;4.70;;;;;;;;;;6279524;28;20205;-61
2023/04/28 06:01:35;;;;;;;6.87;5.30;;;;;;;;;;6281562;28;20224;-61
2023/04/28 06:04:36;;;;;;;5.90;4.60;;;;;;;;;;6296506;28;20211;-61
2023/04/28 06:07:37;;;;;;;6.90;4.57;;;;;;;;;;6296406;28;20259;-61
2023/04/28 06:10:38;;;;;;;7.17;5.60;;;;;;;;;;6318900;28;20199;-61
2023/04/28 06:13:39;;;;;;;8.93;5.33;;;;;;;;;;6298987;28;20255;-61
2023/04/28 06:16:40;;;;;;;6.23;5.20;;;;;;;;;;6275726;28;20238;-61
2023/04/28 06:19:41;;;;;;;6.60;5.83;;;;;;;;;;6283999;28;20228;-61
2023/04/28 06:22:42;;;;;;;9.87;5.60;;;;;;;;;;6307797;28;20196;-61
2023/04/28 06:25:43;;;;;;;8.60;6.47;;;;;;;;;;6314722;28;20265;-61
2023/04/28 06:28:44;;;;;;;11.00;6.00;;;;;;;;;;6312311;28;20195;-61
2023/04/28 06:31:45;;;;;;;7.77;5.70;;;;;;;;;;6298751;28;20193;-61
2023/04/28 06:34:46;;;;;;;9.47;5.97;;;;;;;;;;6293760;28;20236;-61
2023/04/28 06:37:47;;;;;;;6.60;5.60;;;;;;;;;;6282454;28;20208;-61
2023/04/28 06:40:48;;;;;;;8.83;6.23;;;;;;;;;;6280599;28;20193;-61
2023/04/28 06:43:50;;;;;;;11.23;5.93;;;;;;;;;;6288169;28;20257;-61
2023/04/28 06:46:51;;;;;;;12.87;6.73;;;;;;;;;;6291576;28;20211;-61
2023/04/28 06:49:52;;;;;;;11.67;7.03;;;;;;;;;;6294473;28;20189;-61
2023/04/28 06:52:53;;;;;;;9.37;7.17;;;;;;;;;;6305619;28;20185;-61
2023/04/28 06:55:55;;;;;;;7.97;6.40;;;;;;;;;;6295831;28;20181;-61
2023/04/28 06:58:57;;;;;;;7.57;5.63;;;;;;;;;;6303087;28;20216;-61
2023/04/28 07:01:58;;;;;;;8.47;5.60;;;;;;;;;;6313351;28;20182;-61
2023/04/28 07:04:59;;;;;;;6.33;5.70;;;;;;;;;;6312713;28;20177;-61
2023/04/28 07:08:00;;;;;;;9.47;5.37;;;;;;;;;;6290181;28;20205;-61
2023/04/28 07:11:05;;;;;;;7.83;5.73;;;;;;;;;;6279343;28;20212;-61
2023/04/28 07:14:07;;;;;;;10.30;5.53;;;;;;;;;;6312529;28;20193;-61
2023/04/28 07:17:08;;;;;;;6.93;5.53;;;;;;;;;;6301353;28;20263;-61
2023/04/28 07:20:09;;;;;;;8.10;5.30;;;;;;;;;;6269544;28;20194;-61
2023/04/28 07:23:10;;;;;;;7.33;5.17;;;;;;;;;;6313922;28;20200;-61
2023/04/28 07:26:15;;;;;;;10.37;5.70;;;;;;;;;;6277533;28;20201;-61
2023/04/28 07:29:16;;;;;;;5.33;4.67;;;;;;;;;;6314217;28;20196;-61
2023/04/28 07:32:17;;;;;;;7.53;5.67;;;;;;;;;;6291702;28;20197;-61
2023/04/28 07:35:18;;;;;;;9.17;5.13;;;;;;;;;;6300021;28;20333;-61
2023/04/28 07:38:19;;;;;;;8.17;5.47;;;;;;;;;;6269545;28;20246;-61
2023/04/28 07:41:20;;;;;;;7.20;4.60;;;;;;;;;;6311146;28;20180;-61
2023/04/28 07:44:21;;;;;;;7.23;5.30;;;;;;;;;;6290605;28;20253;-61
2023/04/28 07:47:22;;;;;;;8.20;4.70;;;;;;;;;;6297213;28;20246;-61
2023/04/28 07:50:24;;;;;;;8.13;5.50;;;;;;;;;;6296863;28;20197;-61
2023/04/28 07:53:25;;;;;;;7.03;5.10;;;;;;;;;;6311933;28;20195;-61
2023/04/28 07:56:26;;;;;;;7.60;4.70;;;;;;;;;;6298456;28;20193;-61
2023/04/28 07:59:27;;;;;;;5.77;4.53;;;;;;;;;;6302249;28;20254;-61
2023/04/28 08:02:28;;;;;;;6.27;4.53;;;;;;;;;;6292093;28;20190;-61
2023/04/28 08:05:30;;;;;;;6.83;5.37;;;;;;;;;;6276201;28;20187;-61
2023/04/28 08:08:31;;;;;;;8.50;4.90;;;;;;;;;;6294878;28;20186;-61
2023/04/28 08:11:32;;;;;;;5.30;4.03;;;;;;;;;;6306573;28;20200;-61
2023/04/28 08:14:33;;;;;;;5.60;4.57;;;;;;;;;;6274699;28;20185;-61
2023/04/28 08:17:34;;;;;;;6.67;5.00;;;;;;;;;;6292661;28;20245;-61
2023/04/28 08:20:35;;;;;;;6.53;4.53;;;;;;;;;;6278299;28;20188;-61
2023/04/28 08:23:36;;;;;;;6.30;5.50;;;;;;;;;;6286782;28;20189;-61
2023/04/28 08:26:37;;;;;;;5.67;5.17;;;;;;;;;;6279294;28;20192;-61
2023/04/28 08:29:39;;;;;;;8.70;5.17;;;;;;;;;;6289593;28;20201;-61
2023/04/28 08:32:40;;;;;;;7.93;4.87;;;;;;;;;;6297158;28;20288;-61
2023/04/28 08:35:41;;;;;;;7.60;4.80;;;;;;;;;;6274867;28;20332;-61
2023/04/28 08:38:42;;;;;;;7.83;4.80;;;;;;;;;;6308888;28;20256;-61
2023/04/28 08:41:43;;;;;;;7.13;4.90;;;;;;;;;;6307332;28;20227;-61
2023/04/28 08:44:45;;;;;;;5.07;4.50;;;;;;;;;;6300651;28;20276;-61
2023/04/28 08:47:49;;;;;;;7.13;4.80;;;;;;;;;;6288899;28;20192;-61
2023/04/28 08:50:53;;;;;;;7.20;5.20;;;;;;;;;;6313896;28;20297;-61
2023/04/28 08:53:55;;;;;;;7.63;4.93;;;;;;;;;;6311931;28;20242;-61
2023/04/28 08:56:56;;;;;;;7.63;4.40;;;;;;;;;;6278963;28;20205;-61
2023/04/28 08:59:58;;;;;;;8.53;5.27;;;;;;;;;;6304803;28;20184;-61
2023/04/28 09:02:59;;;;;;;8.53;5.60;;;;;;;;;;6310467;28;20177;-61
2023/04/28 09:06:01;;;;;;;7.80;5.13;;;;;;;;;;6302599;28;20192;-61
2023/04/28 09:09:21;;;;;;;7.47;6.20;;;;;;;;;;6287181;28;20285;-61
2023/04/28 09:12:35;;;;;;;9.70;6.80;;;;;;;;;;6309935;28;20204;-61
2023/04/28 09:15:40;;;;;;;8.77;5.80;;;;;;;;;;6288442;28;20221;-61
2023/04/28 09:18:55;;;;;;;12.30;5.63;;;;;;;;;;6319145;28;20328;-61
2023/04/28 09:21:57;;;;;;;9.07;6.23;;;;;;;;;;6311836;28;20277;-61
2023/04/28 09:25:10;;;;;;;11.10;5.93;;;;;;;;;;6288208;28;20269;-61
2023/04/28 09:28:21;;;;;;;8.20;5.40;;;;;;;;;;6305894;28;20186;-61
2023/04/28 09:31:28;;;;;;;9.73;6.40;;;;;;;;;;6317428;28;20204;-61
2023/04/28 09:34:44;;;;;;;10.63;6.67;;;;;;;;;;6307539;28;20236;-61
2023/04/28 09:37:45;;;;;;;7.30;5.50;;;;;;;;;;6299334;28;20206;-61
2023/04/28 09:41:12;;;;;;;7.13;5.10;;;;;;;;;;6315848;28;20189;-61
2023/04/28 09:44:16;;;;;;;10.50;5.53;;;;;;;;;;6278700;28;20236;-61
2023/04/28 09:47:21;;;;;;;6.53;4.57;;;;;;;;;;6314834;28;20197;-61
2023/04/28 09:50:22;;;;;;;5.73;4.93;;;;;;;;;;6281832;28;20284;-61
2023/04/28 09:53:23;;;;;;;8.17;5.27;;;;;;;;;;6294116;28;20189;-61
2023/04/28 09:56:26;;;;;;;7.13;6.30;;;;;;;;;;6314413;28;20188;-61
2023/04/28 09:59:27;;;;;;;7.37;5.40;;;;;;;;;;6321348;28;20220;-61
2023/04/28 10:02:29;;;;;;;9.57;5.63;;;;;;;;;;6297041;28;20188;-61
2023/04/28 10:05:31;;;;;;;6.27;4.67;;;;;;;;;;6279818;28;20204;-61
2023/04/28 10:08:32;;;;;;;8.73;4.97;;;;;;;;;;6299214;28;20198;-61
2023/04/28 10:11:33;;;;;;;5.30;4.80;;;;;;;;;;6295282;28;20186;-61
2023/04/28 10:14:35;;;;;;;5.30;4.80;;;;;;;;;;6324452;28;20189;-61
2023/04/28 10:17:37;;;;;;;6.83;4.80;;;;;;;;;;6296423;28;20216;-61
2023/04/28 10:20:38;;;;;;;7.87;4.67;;;;;;;;;;6305350;28;20190;-61
2023/04/28 10:23:46;;;;;;;6.73;4.77;;;;;;;;;;6290621;28;20232;-61
2023/04/28 10:26:53;;;;;;;6.87;5.07;;;;;;;;;;6318451;28;20190;-61
2023/04/28 10:29:54;;;;;;;6.63;5.87;;;;;;;;;;6283804;28;20276;-62
2023/04/28 10:33:13;;;;;;;6.50;5.10;;;;;;;;;;6317696;28;20194;-62
2023/04/28 10:36:33;;;;;;;8.70;5.27;;;;;;;;;;6301608;28;20230;-62
2023/04/28 10:39:34;;;;;;;6.10;5.23;;;;;;;;;;6330741;28;20210;-62
2023/04/28 10:42:52;;;;;;;10.20;5.33;;;;;;;;;;6295293;28;20221;-62
2023/04/28 10:45:53;;;;;;;5.30;4.57;;;;;;;;;;6300835;28;20220;-62
2023/04/28 10:48:54;;;;;;;8.47;5.37;;;;;;;;;;6305949;28;20185;-62
2023/04/28 10:51:55;;;;;;;7.97;5.90;;;;;;;;;;6275710;28;20212;-62
2023/04/28 10:55:15;;;;;;;8.10;6.03;;;;;;;;;;6306833;28;20189;-62
2023/04/28 10:58:19;;;;;;;6.83;5.80;;;;;;;;;;6296371;28;20213;-62
2023/04/28 11:01:30;;;;;;;7.10;5.87;;;;;;;;;;6313200;28;20182;-62
2023/04/28 11:04:51;;;;;;;7.37;5.70;;;;;;;;;;6297690;28;20185;-62
2023/04/28 11:08:13;;;;;;;8.83;5.77;;;;;;;;;;6300513;28;20189;-62
2023/04/28 11:11:14;;;;;;;7.23;5.67;;;;;;;;;;6290154;28;20217;-62
2023/04/28 11:14:19;;;;;;;8.97;6.37;;;;;;;;;;6312226;28;20189;-62
2023/04/28 11:17:34;;;;;;;8.67;5.77;;;;;;;;;;6308895;28;20193;-62
2023/04/28 11:20:36;;;;;;;6.63;5.70;;;;;;;;;;6321030;28;20178;-61
2023/04/28 11:23:38;;;;;;;8.40;5.30;;;;;;;;;;6290680;28;20222;-61
2023/04/28 11:26:40;;;;;;;6.03;5.43;;;;;;;;;;6311661;28;20227;-61
2023/04/28 11:29:42;;;;;;;6.60;5.80;;;;;;;;;;6293853;28;20419;-61
2023/04/28 11:32:43;;;;;;;6.87;5.40;;;;;;;;;;6306679;28;20222;-61
2023/04/28 11:35:45;;;;;;;13.67;6.00;;;;;;;;;;6267658;28;20267;-62
2023/04/28 11:38:47;;;;;;;5.97;5.17;;;;;;;;;;6305730;28;20228;-62
2023/04/28 11:41:48;;;;;;;7.70;5.30;;;;;;;;;;6285014;28;20197;-62
2023/04/28 11:44:51;;;;;;;8.33;6.03;;;;;;;;;;6285598;28;20191;-62
2023/04/28 11:47:52;;;;;;;11.97;6.63;;;;;;;;;;6298902;28;20193;-62
2023/04/28 11:50:53;;;;;;;9.07;6.80;;;;;;;;;;6277769;28;20205;-62
2023/04/28 11:53:54;;;;;;;6.77;6.17;;;10.00;60.50;;;;;;6298534;28;20203;-62
2023/04/28 11:56:56;;;;;;;6.40;5.73;;;17.50;46.50;;;;;;6292713;28;20187;-62
2023/04/28 12:00:17;;;;;;;7.40;5.93;;;17.40;48.40;;;;;;6280001;28;20278;-62
2023/04/28 12:03:18;;;;;;;7.87;6.00;;;17.70;48.50;;;;;;6291507;28;20196;-62
2023/04/28 12:06:19;;;;;;;7.97;6.63;;;18.00;47.20;;;;;;6281132;28;20195;-62
2023/04/28 12:09:23;;;;;;;9.50;6.13;;;18.20;44.50;;;;;;6265585;28;20199;-63
2023/04/28 12:12:29;;;;;;;6.70;6.07;;;18.20;45.40;;;;;;6284981;28;20200;-63
2023/04/28 12:15:39;;;;;;;10.97;7.07;;;18.20;45.90;;;;;;6295349;28;20193;-63
2023/04/28 12:18:58;;;;;;;7.77;6.97;;;18.40;44.90;;;;;;6271200;28;20325;-62
2023/04/28 12:22:04;;;;;;;10.47;6.47;;;18.30;44.80;;;;;;6274831;28;20190;-62
2023/04/28 12:25:10;;;;;;;8.63;7.03;;;18.20;44.40;;;;;;6273226;28;20235;-62
2023/04/28 12:28:10;;;;;;;7.90;6.53;;;18.20;44.20;;;;;;6302604;28;20189;-63
2023/04/28 12:31:11;;;;;;;9.80;6.43;;;18.00;45.50;;;;;;6278461;28;20207;-63
2023/04/28 12:34:12;;;;;;;8.43;6.37;;;17.50;44.30;;;;;;6278718;28;20200;-62
2023/04/28 12:37:13;;;;;;;12.13;6.60;;;17.00;46.00;;;;;;6264128;28;20202;-62
2023/04/28 12:40:13;;;;;;;6.80;5.97;;;16.90;46.70;;;;;;6265246;28;20192;-63
2023/04/28 12:43:14;;;;;;;7.87;6.57;;;16.50;47.50;;;;;;6300451;28;20181;-63
2023/04/28 12:46:15;;;;;;;7.80;6.10;;;16.20;48.00;;;;;;6264668;28;20189;-62
2023/04/28 12:49:16;;;;;;;7.73;6.30;;;16.10;49.30;;;;;;6260570;28;20197;-62
2023/04/28 12:52:16;;;;;;;9.73;6.90;;;16.00;47.70;;;;;;6281703;28;20194;-62
2023/04/28 12:55:17;;;;;;;8.53;7.27;;;16.00;48.40;;;;;;6295451;28;20187;-62
2023/04/28 12:58:18;;;;;;;11.33;7.10;;;15.80;48.50;;;;;;6287504;28;20209;-62
2023/04/28 13:01:18;;;;;;;8.53;6.70;;;16.00;50.30;;;;;;6254866;28;20186;-62
2023/04/28 13:04:19;;;;;;;7.47;6.67;;;16.10;50.40;;;;;;6282516;28;20181;-62
2023/04/28 13:07:20;;;;;;;11.70;6.97;;;16.10;49.90;;;;;;6259923;28;20186;-62
2023/04/28 13:10:22;;;;;;;10.00;7.47;;;16.10;50.30;;;;;;6280315;28;20239;-62
2023/04/28 13:13:22;;;;;;;8.03;6.63;;;16.10;49.30;;;;;;6268732;28;20181;-62
2023/04/28 13:16:32;;;;;;;13.33;7.80;;;16.10;51.40;;;;;;6278385;28;20213;-62
2023/04/28 13:19:33;;;;;;;8.40;6.90;;;16.00;50.30;;;;;;6257760;28;20236;-62
2023/04/28 13:22:34;;;;;;;8.43;7.60;;;16.00;50.30;;;;;;6267433;28;20199;-62
2023/04/28 13:25:34;;;;;;;8.43;7.63;;;16.00;51.60;;;;;;6292476;28;20178;-63
2023/04/28 13:28:35;;;;;;;8.77;7.80;;;15.90;49.70;;;;;;6289569;28;20193;-62
2023/04/28 13:31:36;;;;;;;9.90;7.63;;;16.00;51.70;;;;;;6278211;28;20294;-63
2023/04/28 13:34:37;;;;;;;9.77;7.33;;;16.10;50.60;;;;;;6274440;28;20234;-62
2023/04/28 13:37:41;;;;;;;9.87;6.87;;;16.10;51.40;;;;;;6282016;28;20209;-62
2023/04/28 13:40:42;;;;;;;7.30;6.70;;;16.10;51.70;;;;;;6271658;28;20192;-62
2023/04/28 13:43:43;;;;;;;9.83;7.17;;;16.00;50.90;;;;;;6272924;28;20196;-62
2023/04/28 13:46:44;;;;;;;7.93;6.20;;;16.00;50.30;;;;;;6275630;28;20194;-62
2023/04/28 13:49:46;;;;;;;8.13;7.20;;;15.80;51.70;;;;;;6254244;28;20198;-62
2023/04/28 13:52:47;;;;;;;8.67;6.97;;;15.80;50.90;;;;;;6281948;28;20186;-62
2023/04/28 13:55:49;;;;;;;10.13;7.03;;;15.80;52.00;;;;;;6276898;28;20197;-62
2023/04/28 13:58:51;;;;;;;8.83;7.23;;;15.80;52.60;;;;;;6292103;28;20305;-62
2023/04/28 14:01:52;;;;;;;10.60;6.93;;;15.80;51.40;;;;;;6295972;28;20182;-62
2023/04/28 14:04:52;;;;;;;9.87;6.23;;;15.80;53.20;;;;;;6279666;28;20190;-62
2023/04/28 14:07:54;;;;;;;8.33;7.07;;;15.90;52.80;;;;;;6282795;28;20196;-62
2023/04/28 14:10:54;;;;;;;8.03;7.23;;;15.80;55.20;;;;;;6307001;28;20194;-62
2023/04/28 14:13:55;;;;;;;8.47;7.03;;;15.70;59.00;;;;;;6295491;28;20193;-62
2023/04/28 14:16:56;;;;;;;9.13;6.90;;;;;;;;;;6252828;28;20319;-62
2023/04/28 14:19:57;;;;;;;8.40;6.30;;;;;;;;;;6295498;28;20215;-62
2023/04/28 14:22:59;;;;;;;11.83;7.50;;;;;;;;;;6295713;28;20185;-62
2023/04/28 14:26:00;;;;;;;10.23;7.23;;;;;;;;;;6302849;28;20189;-62
2023/04/28 14:29:01;;;;;;;10.93;8.27;;;;;;;;;;6311811;28;20265;-62
2023/04/28 14:32:02;;;;;;;8.27;7.20;;;;;;;;;;6274947;28;20239;-62
2023/04/28 14:35:04;;;;;;;8.97;7.40;;;15.20;59.80;;;;;;6319587;28;20397;-62
2023/04/28 14:38:05;;;;;;;8.83;7.93;;;;;;;;;;6293574;28;20209;-62
2023/04/28 14:41:06;;;;;;;8.70;6.80;;;;;;;;;;6296382;28;20193;-62
2023/04/28 14:44:08;;;;;;;9.47;8.47;;;;;;;;;;6294514;28;20225;-63
2023/04/28 14:47:09;;;;;;;9.10;7.60;;;;;;;;;;6287217;28;20232;-62
2023/04/28 14:50:10;;;;;;;7.97;7.17;;;;;;;;;;6289305;28;20232;-62
2023/04/28 14:53:11;;;;;;;8.73;7.80;;;;;;;;;;6300234;28;20324;-61
2023/04/28 14:56:12;;;;;;;9.37;7.60;;;;;;;;;;6284527;28;20505;-62
2023/04/28 14:59:14;;;;;;;9.37;7.83;;;;;;;;;;6295916;28;20390;-62
2023/04/28 15:02:15;;;;;;;9.93;8.40;;;;;;;;;;6292479;28;20188;-63
2023/04/28 15:05:16;;;;;;;8.93;8.00;;;;;;;;;;6293829;28;20193;-65
2023/04/28 15:08:17;;;;;;;8.40;7.60;;;;;;;;;;6277371;28;20220;-63
2023/04/28 15:11:18;;;;;;;12.53;9.10;;;;;;;;;;6295547;28;20193;-63
2023/04/28 15:14:19;;;;;;;12.47;8.90;;;;;;;;;;6289108;28;20194;-64
2023/04/28 15:17:21;;;;;;;10.03;9.03;;;;;;;;;;6303577;28;20193;-63
2023/04/28 15:20:22;;;;;;;10.20;9.13;;;;;;;;;;6298973;28;20219;-63
2023/04/28 15:23:23;;;;;;;12.60;10.37;;;;;;;;;;6319080;28;20215;-63
2023/04/28 15:26:28;;;;;;;11.33;10.20;;;;;;;;;;6305493;28;20284;-64
2023/04/28 15:29:29;;;;;;;12.47;10.10;;;;;;;;;;6315240;28;20275;-63
2023/04/28 15:32:31;;;;;;;10.90;9.80;;;;;;;;;;6291734;28;20265;-63
2023/04/28 15:35:32;;;;;;;14.07;11.17;;;;;;;;;;6295344;28;20237;-63
2023/04/28 15:38:33;;;;;;;13.33;9.80;;;;;;;;;;6302537;28;20211;-63
2023/04/28 15:41:34;;;;;;;12.87;10.70;;;;;;;;;;6308107;28;20194;-63
2023/04/28 15:44:36;;;;;;;13.47;11.00;;;;;;;;;;6287565;28;20300;-63
2023/04/28 15:47:37;;;;;;;12.67;9.87;;;;;;;;;;6295435;28;20271;-62
2023/04/28 15:50:39;;;;;;;12.93;10.50;;;;;;;;;;6307906;28;20195;-62
2023/04/28 15:53:40;;;;;;;14.37;10.00;;;;;;;;;;6279437;28;20196;-62
2023/04/28 15:56:41;;;;;;;12.53;11.27;;;;;;;;;;6305824;28;20197;-64
2023/04/28 15:59:42;;;;;;;15.07;11.63;;;;;;;;;;6269098;28;20266;-62
2023/04/28 16:02:43;;;;;;;12.30;11.03;;;14.50;64.00;;;;;;6278118;28;20275;-62
2023/04/28 16:05:45;;;;;;;15.00;12.23;;;12.30;87.90;;;;;;6289728;28;20193;-63
2023/04/28 16:08:46;;;;;;;16.33;12.10;;;12.30;87.60;;;;;;6270014;28;20194;-63
2023/04/28 16:11:47;;;;;;;16.17;13.50;;;12.30;87.10;;;;;;6283899;28;20196;-63
2023/04/28 16:14:49;;;;;;;15.07;12.20;;;12.30;87.30;;;;;;6269705;28;20246;-65
2023/04/28 16:17:51;;;;;;;13.50;12.07;;;12.20;83.40;;;;;;6284663;28;20220;-62
2023/04/28 16:20:52;;;;;;;14.77;11.87;;;12.10;84.70;;;;;;6292440;28;20207;-64
2023/04/28 16:23:53;;;;;;;14.80;11.13;;;;;;;;;;6261292;28;20284;-61
2023/04/28 16:26:54;;;;;;;13.80;11.67;;;;;;;;;;6291477;28;20197;-61
2023/04/28 16:29:55;;;;;;;15.53;12.90;;;;;;;;;;6293536;28;20185;-62
2023/04/28 16:32:57;;;;;;;14.83;12.63;;;;;;;;;;6289603;28;20189;-62
2023/04/28 16:35:58;;;;;;;16.33;13.63;;;;;;;;;;6319420;28;20240;-62
2023/04/28 16:38:59;;;;;;;15.17;13.60;;;;;;;;;;6287915;28;20197;-61
2023/04/28 16:42:02;;;;;;;18.23;12.60;;;;;;;;;;6311247;28;20187;-61
2023/04/28 16:45:03;;;;;;;14.67;12.20;;;;;;;;;;6300400;28;20544;-61
2023/04/28 16:48:05;;;;;;;16.63;13.07;;;;;;;;;;6311711;28;20185;-61
2023/04/28 16:51:08;;;;;;;15.37;13.60;;;;;;;;;;6312917;28;20192;-61
2023/04/28 16:54:09;;;;;;;13.93;12.50;;;;;;;;;;6341016;28;20211;-61
2023/04/28 16:57:10;;;;;;;14.57;12.30;;;;;;;;;;6299549;28;20197;-61
2023/04/28 17:00:12;;;;;;;16.47;13.13;;;;;;;;;;6293510;28;20220;-61
2023/04/28 17:03:13;;;;;;;14.60;13.10;;;;;;;;;;6315178;28;20188;-61
2023/04/28 17:06:14;;;;;;;13.80;12.10;;;;;;;;;;6296184;28;20194;-62
2023/04/28 17:09:16;;;;;;;13.73;11.63;;;;;;;;;;6296505;28;20220;-61
2023/04/28 17:12:17;;;;;;;15.10;12.77;;;;;;;;;;6303691;28;20243;-64
2023/04/28 17:15:18;;;;;;;15.50;12.47;;;;;;;;;;6287309;28;20264;-65
2023/04/28 17:18:19;;;;;;;15.53;13.93;;;;;;;;;;6302510;28;20237;-64
2023/04/28 17:21:20;;;;;;;13.00;11.17;;;;;;;;;;6305005;28;20192;-66
2023/04/28 17:24:21;;;;;;;17.37;14.13;;;;;;;;;;6297147;28;20193;-66
2023/04/28 17:27:23;;;;;;;16.67;14.73;;;;;;;;;;6281713;28;20200;-67
2023/04/28 17:30:24;;;;;;;14.20;12.67;;;;;;;;;;6320192;28;20189;-66
2023/04/28 17:33:25;;;;;;;13.60;12.23;;;;;;;;;;6300740;28;20280;-66
2023/04/28 17:36:27;;;;;;;12.50;10.90;;;;;;;;;;6283351;28;20247;-68
2023/04/28 17:39:28;;;;;;;13.53;11.87;;;;;;;;;;6304489;28;20239;-66
2023/04/28 17:42:30;;;;;;;13.20;11.90;;;;;;;;;;6291902;28;20193;-64